sensor_id;sensor_type;location;lat;lon;timestamp;P1;durP1;ratioP1;P2;durP2;ratioP2
15490;SDS011;7847;50.930;4.336;2023-08-31T00:02:22;0.30;;;0.30;;
15490;SDS011;7847;50.930;4.336;2023-08-31T00:04:50;0.23;;;0.23;;
15490;SDS011;7847;50.930;4.336;2023-08-31T00:07:18;0.20;;;0.20;;
15490;SDS011;7847;50.930;4.336;2023-08-31T00:09:44;0.20;;;0.20;;
15490;SDS011;7847;50.930;4.336;2023-08-31T00:12:10;0.30;;;0.30;;
15490;SDS011;7847;50.930;4.336;2023-08-31T00:14:36;0.20;;;0.20;;
15490;SDS011;7847;50.930;4.336;2023-08-31T00:17:02;0.20;;;0.20;;
15490;SDS011;7847;50.930;4.336;2023-08-31T00:19:29;0.20;;;0.20;;
15490;SDS011;7847;50.930;4.336;2023-08-31T00:21:55;0.30;;;0.30;;
15490;SDS011;7847;50.930;4.336;2023-08-31T00:24:21;0.20;;;0.20;;
15490;SDS011;7847;50.930;4.336;2023-08-31T00:26:53;0.30;;;0.30;;
15490;SDS011;7847;50.930;4.336;2023-08-31T00:29:19;0.30;;;0.30;;
15490;SDS011;7847;50.930;4.336;2023-08-31T00:31:45;0.20;;;0.20;;
15490;SDS011;7847;50.930;4.336;2023-08-31T00:34:13;0.30;;;0.30;;
15490;SDS011;7847;50.930;4.336;2023-08-31T00:36:39;0.20;;;0.20;;
15490;SDS011;7847;50.930;4.336;2023-08-31T00:39:06;0.20;;;0.20;;
15490;SDS011;7847;50.930;4.336;2023-08-31T00:41:35;0.20;;;0.20;;
15490;SDS011;7847;50.930;4.336;2023-08-31T00:44:01;0.20;;;0.20;;
15490;SDS011;7847;50.930;4.336;2023-08-31T00:46:29;0.20;;;0.20;;
15490;SDS011;7847;50.930;4.336;2023-08-31T00:48:56;0.20;;;0.20;;
15490;SDS011;7847;50.930;4.336;2023-08-31T00:51:23;0.30;;;0.30;;
15490;SDS011;7847;50.930;4.336;2023-08-31T00:53:49;0.20;;;0.20;;
15490;SDS011;7847;50.930;4.336;2023-08-31T00:56:18;0.30;;;0.30;;
15490;SDS011;7847;50.930;4.336;2023-08-31T00:58:45;0.20;;;0.20;;
15490;SDS011;7847;50.930;4.336;2023-08-31T01:01:15;0.30;;;0.30;;
15490;SDS011;7847;50.930;4.336;2023-08-31T01:09:05;0.30;;;0.30;;
15490;SDS011;7847;50.930;4.336;2023-08-31T01:14:22;0.30;;;0.30;;
15490;SDS011;7847;50.930;4.336;2023-08-31T01:16:49;0.30;;;0.30;;
15490;SDS011;7847;50.930;4.336;2023-08-31T01:19:20;0.20;;;0.20;;
15490;SDS011;7847;50.930;4.336;2023-08-31T01:21:50;0.30;;;0.30;;
15490;SDS011;7847;50.930;4.336;2023-08-31T01:24:17;0.20;;;0.20;;
15490;SDS011;7847;50.930;4.336;2023-08-31T01:26:44;0.20;;;0.20;;
15490;SDS011;7847;50.930;4.336;2023-08-31T01:29:10;0.30;;;0.30;;
15490;SDS011;7847;50.930;4.336;2023-08-31T01:31:43;0.27;;;0.27;;
15490;SDS011;7847;50.930;4.336;2023-08-31T01:34:10;0.30;;;0.30;;
15490;SDS011;7847;50.930;4.336;2023-08-31T01:36:36;0.30;;;0.30;;
15490;SDS011;7847;50.930;4.336;2023-08-31T01:41:39;0.30;;;0.30;;
15490;SDS011;7847;50.930;4.336;2023-08-31T01:44:06;0.30;;;0.30;;
15490;SDS011;7847;50.930;4.336;2023-08-31T01:46:36;0.30;;;0.30;;
15490;SDS011;7847;50.930;4.336;2023-08-31T01:49:04;0.27;;;0.27;;
15490;SDS011;7847;50.930;4.336;2023-08-31T01:51:30;0.30;;;0.30;;
15490;SDS011;7847;50.930;4.336;2023-08-31T01:53:56;0.20;;;0.20;;
15490;SDS011;7847;50.930;4.336;2023-08-31T01:56:24;0.20;;;0.20;;
15490;SDS011;7847;50.930;4.336;2023-08-31T01:58:50;0.30;;;0.30;;
15490;SDS011;7847;50.930;4.336;2023-08-31T02:01:16;0.30;;;0.30;;
15490;SDS011;7847;50.930;4.336;2023-08-31T02:03:43;0.30;;;0.30;;
15490;SDS011;7847;50.930;4.336;2023-08-31T02:06:09;0.27;;;0.27;;
15490;SDS011;7847;50.930;4.336;2023-08-31T02:08:35;0.30;;;0.30;;
15490;SDS011;7847;50.930;4.336;2023-08-31T02:11:01;0.20;;;0.20;;
15490;SDS011;7847;50.930;4.336;2023-08-31T02:13:27;0.27;;;0.27;;
15490;SDS011;7847;50.930;4.336;2023-08-31T02:15:53;0.30;;;0.30;;
15490;SDS011;7847;50.930;4.336;2023-08-31T02:18:19;0.30;;;0.30;;
15490;SDS011;7847;50.930;4.336;2023-08-31T02:20:45;0.20;;;0.20;;
15490;SDS011;7847;50.930;4.336;2023-08-31T02:23:11;0.30;;;0.30;;
15490;SDS011;7847;50.930;4.336;2023-08-31T02:25:37;0.30;;;0.30;;
15490;SDS011;7847;50.930;4.336;2023-08-31T02:28:04;0.20;;;0.20;;
15490;SDS011;7847;50.930;4.336;2023-08-31T02:30:30;0.20;;;0.20;;
15490;SDS011;7847;50.930;4.336;2023-08-31T02:32:56;0.30;;;0.30;;
15490;SDS011;7847;50.930;4.336;2023-08-31T02:35:22;0.20;;;0.20;;
15490;SDS011;7847;50.930;4.336;2023-08-31T02:37:48;0.30;;;0.30;;
15490;SDS011;7847;50.930;4.336;2023-08-31T02:40:14;0.20;;;0.20;;
15490;SDS011;7847;50.930;4.336;2023-08-31T02:42:40;0.30;;;0.30;;
15490;SDS011;7847;50.930;4.336;2023-08-31T02:45:07;0.20;;;0.20;;
15490;SDS011;7847;50.930;4.336;2023-08-31T02:47:33;0.20;;;0.20;;
15490;SDS011;7847;50.930;4.336;2023-08-31T02:49:59;0.30;;;0.30;;
15490;SDS011;7847;50.930;4.336;2023-08-31T02:52:25;0.30;;;0.30;;
15490;SDS011;7847;50.930;4.336;2023-08-31T02:54:51;0.20;;;0.20;;
15490;SDS011;7847;50.930;4.336;2023-08-31T02:57:17;0.30;;;0.30;;
15490;SDS011;7847;50.930;4.336;2023-08-31T02:59:44;0.30;;;0.30;;
15490;SDS011;7847;50.930;4.336;2023-08-31T03:02:11;0.30;;;0.30;;
15490;SDS011;7847;50.930;4.336;2023-08-31T03:04:37;0.20;;;0.20;;
15490;SDS011;7847;50.930;4.336;2023-08-31T03:07:04;0.20;;;0.20;;
15490;SDS011;7847;50.930;4.336;2023-08-31T03:09:30;0.20;;;0.20;;
15490;SDS011;7847;50.930;4.336;2023-08-31T03:11:56;0.30;;;0.30;;
15490;SDS011;7847;50.930;4.336;2023-08-31T03:14:22;0.20;;;0.20;;
15490;SDS011;7847;50.930;4.336;2023-08-31T03:16:48;0.30;;;0.30;;
15490;SDS011;7847;50.930;4.336;2023-08-31T03:19:15;0.25;;;0.25;;
15490;SDS011;7847;50.930;4.336;2023-08-31T03:21:41;0.30;;;0.30;;
15490;SDS011;7847;50.930;4.336;2023-08-31T03:24:07;0.30;;;0.30;;
15490;SDS011;7847;50.930;4.336;2023-08-31T03:26:33;0.30;;;0.30;;
15490;SDS011;7847;50.930;4.336;2023-08-31T03:28:59;0.20;;;0.20;;
15490;SDS011;7847;50.930;4.336;2023-08-31T03:31:25;0.20;;;0.20;;
15490;SDS011;7847;50.930;4.336;2023-08-31T03:33:51;0.30;;;0.30;;
15490;SDS011;7847;50.930;4.336;2023-08-31T03:36:17;0.30;;;0.30;;
15490;SDS011;7847;50.930;4.336;2023-08-31T03:38:43;0.20;;;0.20;;
15490;SDS011;7847;50.930;4.336;2023-08-31T03:41:09;0.23;;;0.23;;
15490;SDS011;7847;50.930;4.336;2023-08-31T03:43:35;0.30;;;0.30;;
15490;SDS011;7847;50.930;4.336;2023-08-31T03:46:01;0.30;;;0.30;;
15490;SDS011;7847;50.930;4.336;2023-08-31T03:48:27;0.20;;;0.20;;
15490;SDS011;7847;50.930;4.336;2023-08-31T03:50:54;0.20;;;0.20;;
15490;SDS011;7847;50.930;4.336;2023-08-31T03:53:20;0.30;;;0.30;;
15490;SDS011;7847;50.930;4.336;2023-08-31T03:55:46;0.30;;;0.30;;
15490;SDS011;7847;50.930;4.336;2023-08-31T03:58:12;0.20;;;0.20;;
15490;SDS011;7847;50.930;4.336;2023-08-31T04:00:38;0.30;;;0.30;;
15490;SDS011;7847;50.930;4.336;2023-08-31T04:03:05;0.30;;;0.30;;
15490;SDS011;7847;50.930;4.336;2023-08-31T04:05:34;0.30;;;0.30;;
15490;SDS011;7847;50.930;4.336;2023-08-31T04:08:01;0.23;;;0.23;;
15490;SDS011;7847;50.930;4.336;2023-08-31T04:10:27;0.20;;;0.20;;
15490;SDS011;7847;50.930;4.336;2023-08-31T04:12:54;0.20;;;0.20;;
15490;SDS011;7847;50.930;4.336;2023-08-31T04:15:20;0.30;;;0.30;;
15490;SDS011;7847;50.930;4.336;2023-08-31T04:17:46;0.30;;;0.30;;
15490;SDS011;7847;50.930;4.336;2023-08-31T04:20:14;0.20;;;0.20;;
15490;SDS011;7847;50.930;4.336;2023-08-31T04:22:40;0.30;;;0.30;;
15490;SDS011;7847;50.930;4.336;2023-08-31T04:25:06;0.30;;;0.30;;
15490;SDS011;7847;50.930;4.336;2023-08-31T04:27:33;0.30;;;0.30;;
15490;SDS011;7847;50.930;4.336;2023-08-31T04:29:59;0.30;;;0.30;;
15490;SDS011;7847;50.930;4.336;2023-08-31T04:32:26;0.30;;;0.30;;
15490;SDS011;7847;50.930;4.336;2023-08-31T04:34:52;0.20;;;0.20;;
15490;SDS011;7847;50.930;4.336;2023-08-31T04:37:18;0.30;;;0.30;;
15490;SDS011;7847;50.930;4.336;2023-08-31T04:39:44;0.30;;;0.30;;
15490;SDS011;7847;50.930;4.336;2023-08-31T04:42:10;0.30;;;0.30;;
15490;SDS011;7847;50.930;4.336;2023-08-31T04:44:36;0.20;;;0.20;;
15490;SDS011;7847;50.930;4.336;2023-08-31T04:47:03;0.30;;;0.30;;
15490;SDS011;7847;50.930;4.336;2023-08-31T04:49:29;0.20;;;0.20;;
15490;SDS011;7847;50.930;4.336;2023-08-31T04:51:56;0.30;;;0.30;;
15490;SDS011;7847;50.930;4.336;2023-08-31T04:54:22;0.23;;;0.23;;
15490;SDS011;7847;50.930;4.336;2023-08-31T04:56:48;0.30;;;0.30;;
15490;SDS011;7847;50.930;4.336;2023-08-31T04:59:14;0.20;;;0.20;;
15490;SDS011;7847;50.930;4.336;2023-08-31T05:01:40;0.30;;;0.30;;
15490;SDS011;7847;50.930;4.336;2023-08-31T05:04:06;0.30;;;0.30;;
15490;SDS011;7847;50.930;4.336;2023-08-31T05:06:32;0.20;;;0.20;;
15490;SDS011;7847;50.930;4.336;2023-08-31T05:08:58;0.30;;;0.30;;
15490;SDS011;7847;50.930;4.336;2023-08-31T05:11:24;0.30;;;0.30;;
15490;SDS011;7847;50.930;4.336;2023-08-31T05:13:50;0.30;;;0.30;;
15490;SDS011;7847;50.930;4.336;2023-08-31T05:16:16;0.30;;;0.30;;
15490;SDS011;7847;50.930;4.336;2023-08-31T05:18:42;0.30;;;0.30;;
15490;SDS011;7847;50.930;4.336;2023-08-31T05:21:08;0.30;;;0.30;;
15490;SDS011;7847;50.930;4.336;2023-08-31T05:23:34;0.30;;;0.30;;
15490;SDS011;7847;50.930;4.336;2023-08-31T05:26:00;0.30;;;0.30;;
15490;SDS011;7847;50.930;4.336;2023-08-31T05:28:26;0.30;;;0.30;;
15490;SDS011;7847;50.930;4.336;2023-08-31T05:30:54;0.30;;;0.30;;
15490;SDS011;7847;50.930;4.336;2023-08-31T05:33:20;0.30;;;0.30;;
15490;SDS011;7847;50.930;4.336;2023-08-31T05:35:54;0.30;;;0.30;;
15490;SDS011;7847;50.930;4.336;2023-08-31T05:38:20;0.30;;;0.30;;
15490;SDS011;7847;50.930;4.336;2023-08-31T05:40:46;0.30;;;0.30;;
15490;SDS011;7847;50.930;4.336;2023-08-31T05:43:12;0.20;;;0.20;;
15490;SDS011;7847;50.930;4.336;2023-08-31T05:45:38;0.30;;;0.30;;
15490;SDS011;7847;50.930;4.336;2023-08-31T05:48:04;0.30;;;0.30;;
15490;SDS011;7847;50.930;4.336;2023-08-31T05:50:31;0.30;;;0.30;;
15490;SDS011;7847;50.930;4.336;2023-08-31T05:52:57;0.30;;;0.30;;
15490;SDS011;7847;50.930;4.336;2023-08-31T05:55:23;0.30;;;0.30;;
15490;SDS011;7847;50.930;4.336;2023-08-31T05:57:49;0.30;;;0.30;;
15490;SDS011;7847;50.930;4.336;2023-08-31T06:00:15;0.30;;;0.30;;
15490;SDS011;7847;50.930;4.336;2023-08-31T06:02:41;0.20;;;0.20;;
15490;SDS011;7847;50.930;4.336;2023-08-31T06:05:09;0.30;;;0.30;;
15490;SDS011;7847;50.930;4.336;2023-08-31T06:07:37;0.20;;;0.20;;
15490;SDS011;7847;50.930;4.336;2023-08-31T06:10:03;0.30;;;0.30;;
15490;SDS011;7847;50.930;4.336;2023-08-31T06:12:30;0.30;;;0.30;;
15490;SDS011;7847;50.930;4.336;2023-08-31T06:14:56;0.30;;;0.30;;
15490;SDS011;7847;50.930;4.336;2023-08-31T06:17:22;0.30;;;0.30;;
15490;SDS011;7847;50.930;4.336;2023-08-31T06:19:48;0.30;;;0.30;;
15490;SDS011;7847;50.930;4.336;2023-08-31T06:22:14;0.30;;;0.30;;
15490;SDS011;7847;50.930;4.336;2023-08-31T06:24:40;0.20;;;0.20;;
15490;SDS011;7847;50.930;4.336;2023-08-31T06:27:07;0.20;;;0.20;;
15490;SDS011;7847;50.930;4.336;2023-08-31T06:29:33;0.30;;;0.30;;
15490;SDS011;7847;50.930;4.336;2023-08-31T06:31:59;0.30;;;0.30;;
15490;SDS011;7847;50.930;4.336;2023-08-31T06:34:25;0.28;;;0.28;;
15490;SDS011;7847;50.930;4.336;2023-08-31T06:36:51;0.30;;;0.30;;
15490;SDS011;7847;50.930;4.336;2023-08-31T06:39:17;0.30;;;0.30;;
15490;SDS011;7847;50.930;4.336;2023-08-31T06:44:47;0.20;;;0.20;;
15490;SDS011;7847;50.930;4.336;2023-08-31T06:47:13;0.20;;;0.20;;
15490;SDS011;7847;50.930;4.336;2023-08-31T06:49:42;0.30;;;0.30;;
15490;SDS011;7847;50.930;4.336;2023-08-31T06:52:08;0.20;;;0.20;;
15490;SDS011;7847;50.930;4.336;2023-08-31T06:54:34;0.30;;;0.30;;
15490;SDS011;7847;50.930;4.336;2023-08-31T06:57:00;0.30;;;0.30;;
15490;SDS011;7847;50.930;4.336;2023-08-31T06:59:26;0.30;;;0.30;;
15490;SDS011;7847;50.930;4.336;2023-08-31T07:01:52;0.25;;;0.25;;
15490;SDS011;7847;50.930;4.336;2023-08-31T07:04:19;0.30;;;0.30;;
15490;SDS011;7847;50.930;4.336;2023-08-31T07:06:45;0.20;;;0.20;;
15490;SDS011;7847;50.930;4.336;2023-08-31T07:09:11;0.30;;;0.30;;
15490;SDS011;7847;50.930;4.336;2023-08-31T07:11:37;0.30;;;0.30;;
15490;SDS011;7847;50.930;4.336;2023-08-31T07:14:03;0.20;;;0.20;;
15490;SDS011;7847;50.930;4.336;2023-08-31T07:16:29;0.30;;;0.30;;
15490;SDS011;7847;50.930;4.336;2023-08-31T07:18:55;0.20;;;0.20;;
15490;SDS011;7847;50.930;4.336;2023-08-31T07:21:21;0.30;;;0.30;;
15490;SDS011;7847;50.930;4.336;2023-08-31T07:23:48;0.22;;;0.22;;
15490;SDS011;7847;50.930;4.336;2023-08-31T07:26:14;0.20;;;0.20;;
15490;SDS011;7847;50.930;4.336;2023-08-31T07:28:41;0.30;;;0.30;;
15490;SDS011;7847;50.930;4.336;2023-08-31T07:31:07;0.20;;;0.20;;
15490;SDS011;7847;50.930;4.336;2023-08-31T07:33:33;0.20;;;0.20;;
15490;SDS011;7847;50.930;4.336;2023-08-31T07:36:00;0.20;;;0.20;;
15490;SDS011;7847;50.930;4.336;2023-08-31T07:38:28;0.30;;;0.30;;
15490;SDS011;7847;50.930;4.336;2023-08-31T07:40:54;0.20;;;0.20;;
15490;SDS011;7847;50.930;4.336;2023-08-31T07:43:20;0.20;;;0.20;;
15490;SDS011;7847;50.930;4.336;2023-08-31T07:45:47;0.20;;;0.20;;
15490;SDS011;7847;50.930;4.336;2023-08-31T07:48:13;0.20;;;0.20;;
15490;SDS011;7847;50.930;4.336;2023-08-31T07:50:42;0.20;;;0.20;;
15490;SDS011;7847;50.930;4.336;2023-08-31T07:53:08;0.30;;;0.30;;
15490;SDS011;7847;50.930;4.336;2023-08-31T07:55:34;0.30;;;0.30;;
15490;SDS011;7847;50.930;4.336;2023-08-31T07:58:03;0.30;;;0.30;;
15490;SDS011;7847;50.930;4.336;2023-08-31T08:00:29;0.20;;;0.20;;
15490;SDS011;7847;50.930;4.336;2023-08-31T08:02:55;0.20;;;0.20;;
15490;SDS011;7847;50.930;4.336;2023-08-31T08:05:21;0.30;;;0.30;;
15490;SDS011;7847;50.930;4.336;2023-08-31T08:07:47;0.30;;;0.30;;
15490;SDS011;7847;50.930;4.336;2023-08-31T08:10:13;0.28;;;0.28;;
15490;SDS011;7847;50.930;4.336;2023-08-31T08:12:40;0.20;;;0.20;;
15490;SDS011;7847;50.930;4.336;2023-08-31T08:15:10;0.20;;;0.20;;
15490;SDS011;7847;50.930;4.336;2023-08-31T08:17:36;0.20;;;0.20;;
15490;SDS011;7847;50.930;4.336;2023-08-31T08:20:02;0.30;;;0.30;;
15490;SDS011;7847;50.930;4.336;2023-08-31T08:22:29;0.20;;;0.20;;
15490;SDS011;7847;50.930;4.336;2023-08-31T08:24:55;0.20;;;0.20;;
15490;SDS011;7847;50.930;4.336;2023-08-31T08:27:21;0.30;;;0.30;;
15490;SDS011;7847;50.930;4.336;2023-08-31T08:29:47;0.20;;;0.20;;
15490;SDS011;7847;50.930;4.336;2023-08-31T08:32:13;0.20;;;0.20;;
15490;SDS011;7847;50.930;4.336;2023-08-31T08:34:39;0.20;;;0.20;;
15490;SDS011;7847;50.930;4.336;2023-08-31T08:37:05;0.20;;;0.20;;
15490;SDS011;7847;50.930;4.336;2023-08-31T08:39:31;0.20;;;0.20;;
15490;SDS011;7847;50.930;4.336;2023-08-31T08:42:00;0.20;;;0.20;;
15490;SDS011;7847;50.930;4.336;2023-08-31T08:44:31;0.20;;;0.20;;
15490;SDS011;7847;50.930;4.336;2023-08-31T08:46:58;0.20;;;0.20;;
15490;SDS011;7847;50.930;4.336;2023-08-31T08:49:24;0.20;;;0.20;;
15490;SDS011;7847;50.930;4.336;2023-08-31T08:51:52;0.20;;;0.20;;
15490;SDS011;7847;50.930;4.336;2023-08-31T08:54:18;0.20;;;0.20;;
15490;SDS011;7847;50.930;4.336;2023-08-31T08:56:44;0.20;;;0.20;;
15490;SDS011;7847;50.930;4.336;2023-08-31T08:59:10;0.28;;;0.28;;
15490;SDS011;7847;50.930;4.336;2023-08-31T09:01:38;0.20;;;0.20;;
15490;SDS011;7847;50.930;4.336;2023-08-31T09:04:04;0.20;;;0.20;;
15490;SDS011;7847;50.930;4.336;2023-08-31T09:06:31;0.20;;;0.20;;
15490;SDS011;7847;50.930;4.336;2023-08-31T09:08:57;0.20;;;0.20;;
15490;SDS011;7847;50.930;4.336;2023-08-31T09:11:23;0.20;;;0.20;;
15490;SDS011;7847;50.930;4.336;2023-08-31T09:13:53;0.20;;;0.20;;
15490;SDS011;7847;50.930;4.336;2023-08-31T09:16:24;0.20;;;0.20;;
15490;SDS011;7847;50.930;4.336;2023-08-31T09:18:51;0.20;;;0.20;;
15490;SDS011;7847;50.930;4.336;2023-08-31T09:21:17;0.20;;;0.20;;
15490;SDS011;7847;50.930;4.336;2023-08-31T09:23:47;0.20;;;0.20;;
15490;SDS011;7847;50.930;4.336;2023-08-31T09:26:13;0.20;;;0.20;;
15490;SDS011;7847;50.930;4.336;2023-08-31T09:28:40;0.20;;;0.20;;
15490;SDS011;7847;50.930;4.336;2023-08-31T09:31:07;0.20;;;0.20;;
15490;SDS011;7847;50.930;4.336;2023-08-31T09:33:36;0.20;;;0.20;;
15490;SDS011;7847;50.930;4.336;2023-08-31T09:36:03;0.10;;;0.10;;
15490;SDS011;7847;50.930;4.336;2023-08-31T09:38:29;0.10;;;0.10;;
15490;SDS011;7847;50.930;4.336;2023-08-31T09:41:04;0.20;;;0.20;;
15490;SDS011;7847;50.930;4.336;2023-08-31T09:43:31;0.20;;;0.20;;
15490;SDS011;7847;50.930;4.336;2023-08-31T09:45:58;0.20;;;0.20;;
15490;SDS011;7847;50.930;4.336;2023-08-31T09:48:25;0.10;;;0.10;;
15490;SDS011;7847;50.930;4.336;2023-08-31T09:50:52;0.10;;;0.10;;
15490;SDS011;7847;50.930;4.336;2023-08-31T09:53:19;0.20;;;0.20;;
15490;SDS011;7847;50.930;4.336;2023-08-31T09:55:46;0.20;;;0.20;;
15490;SDS011;7847;50.930;4.336;2023-08-31T09:58:17;0.20;;;0.20;;
15490;SDS011;7847;50.930;4.336;2023-08-31T10:00:44;0.20;;;0.20;;
15490;SDS011;7847;50.930;4.336;2023-08-31T10:03:11;0.20;;;0.20;;
15490;SDS011;7847;50.930;4.336;2023-08-31T10:05:42;0.20;;;0.20;;
15490;SDS011;7847;50.930;4.336;2023-08-31T10:08:08;0.20;;;0.20;;
15490;SDS011;7847;50.930;4.336;2023-08-31T10:10:34;0.10;;;0.10;;
15490;SDS011;7847;50.930;4.336;2023-08-31T10:13:00;0.10;;;0.10;;
15490;SDS011;7847;50.930;4.336;2023-08-31T10:15:30;0.10;;;0.10;;
15490;SDS011;7847;50.930;4.336;2023-08-31T10:17:58;0.13;;;0.13;;
15490;SDS011;7847;50.930;4.336;2023-08-31T10:20:25;0.20;;;0.20;;
15490;SDS011;7847;50.930;4.336;2023-08-31T10:22:54;0.20;;;0.20;;
15490;SDS011;7847;50.930;4.336;2023-08-31T10:25:22;0.10;;;0.10;;
15490;SDS011;7847;50.930;4.336;2023-08-31T10:27:48;0.20;;;0.20;;
15490;SDS011;7847;50.930;4.336;2023-08-31T10:35:54;0.10;;;0.10;;
15490;SDS011;7847;50.930;4.336;2023-08-31T10:38:30;0.10;;;0.10;;
15490;SDS011;7847;50.930;4.336;2023-08-31T10:41:16;0.20;;;0.20;;
15490;SDS011;7847;50.930;4.336;2023-08-31T10:43:44;0.10;;;0.10;;
15490;SDS011;7847;50.930;4.336;2023-08-31T10:51:36;0.10;;;0.10;;
15490;SDS011;7847;50.930;4.336;2023-08-31T10:56:31;0.10;;;0.10;;
15490;SDS011;7847;50.930;4.336;2023-08-31T10:58:58;0.10;;;0.10;;
15490;SDS011;7847;50.930;4.336;2023-08-31T11:04:09;0.10;;;0.10;;
15490;SDS011;7847;50.930;4.336;2023-08-31T11:06:35;0.10;;;0.10;;
15490;SDS011;7847;50.930;4.336;2023-08-31T11:09:01;0.13;;;0.13;;
15490;SDS011;7847;50.930;4.336;2023-08-31T11:11:29;0.10;;;0.10;;
15490;SDS011;7847;50.930;4.336;2023-08-31T11:14:03;0.15;;;0.15;;
15490;SDS011;7847;50.930;4.336;2023-08-31T11:16:29;0.10;;;0.10;;
15490;SDS011;7847;50.930;4.336;2023-08-31T11:18:56;0.20;;;0.20;;
15490;SDS011;7847;50.930;4.336;2023-08-31T11:21:22;0.10;;;0.10;;
15490;SDS011;7847;50.930;4.336;2023-08-31T11:23:48;0.10;;;0.10;;
15490;SDS011;7847;50.930;4.336;2023-08-31T11:26:14;0.10;;;0.10;;
15490;SDS011;7847;50.930;4.336;2023-08-31T11:28:43;0.10;;;0.10;;
15490;SDS011;7847;50.930;4.336;2023-08-31T11:31:12;0.10;;;0.10;;
15490;SDS011;7847;50.930;4.336;2023-08-31T11:33:38;0.10;;;0.10;;
15490;SDS011;7847;50.930;4.336;2023-08-31T11:36:06;0.10;;;0.10;;
15490;SDS011;7847;50.930;4.336;2023-08-31T11:38:33;0.10;;;0.10;;
15490;SDS011;7847;50.930;4.336;2023-08-31T11:40:59;0.10;;;0.10;;
15490;SDS011;7847;50.930;4.336;2023-08-31T11:43:26;0.10;;;0.10;;
15490;SDS011;7847;50.930;4.336;2023-08-31T11:45:55;0.10;;;0.10;;
15490;SDS011;7847;50.930;4.336;2023-08-31T11:48:21;0.08;;;0.08;;
15490;SDS011;7847;50.930;4.336;2023-08-31T11:50:48;0.10;;;0.10;;
15490;SDS011;7847;50.930;4.336;2023-08-31T11:53:15;0.10;;;0.10;;
15490;SDS011;7847;50.930;4.336;2023-08-31T11:55:49;0.10;;;0.10;;
15490;SDS011;7847;50.930;4.336;2023-08-31T11:58:15;0.10;;;0.10;;
15490;SDS011;7847;50.930;4.336;2023-08-31T12:00:42;0.10;;;0.10;;
15490;SDS011;7847;50.930;4.336;2023-08-31T12:03:09;0.10;;;0.10;;
15490;SDS011;7847;50.930;4.336;2023-08-31T12:05:47;0.13;;;0.13;;
15490;SDS011;7847;50.930;4.336;2023-08-31T12:08:14;0.10;;;0.10;;
15490;SDS011;7847;50.930;4.336;2023-08-31T12:10:43;0.10;;;0.10;;
15490;SDS011;7847;50.930;4.336;2023-08-31T12:13:10;0.10;;;0.10;;
15490;SDS011;7847;50.930;4.336;2023-08-31T12:15:36;0.10;;;0.10;;
15490;SDS011;7847;50.930;4.336;2023-08-31T12:18:10;0.10;;;0.10;;
15490;SDS011;7847;50.930;4.336;2023-08-31T12:20:43;0.10;;;0.10;;
15490;SDS011;7847;50.930;4.336;2023-08-31T12:23:09;0.10;;;0.10;;
15490;SDS011;7847;50.930;4.336;2023-08-31T12:25:35;0.10;;;0.10;;
15490;SDS011;7847;50.930;4.336;2023-08-31T12:28:01;0.10;;;0.10;;
15490;SDS011;7847;50.930;4.336;2023-08-31T12:30:28;0.10;;;0.10;;
15490;SDS011;7847;50.930;4.336;2023-08-31T12:32:54;0.10;;;0.10;;
15490;SDS011;7847;50.930;4.336;2023-08-31T12:35:21;0.15;;;0.15;;
15490;SDS011;7847;50.930;4.336;2023-08-31T12:37:47;0.10;;;0.10;;
15490;SDS011;7847;50.930;4.336;2023-08-31T12:40:13;0.20;;;0.20;;
15490;SDS011;7847;50.930;4.336;2023-08-31T12:42:40;0.20;;;0.20;;
15490;SDS011;7847;50.930;4.336;2023-08-31T12:45:06;0.10;;;0.10;;
15490;SDS011;7847;50.930;4.336;2023-08-31T12:47:34;0.10;;;0.10;;
15490;SDS011;7847;50.930;4.336;2023-08-31T12:50:00;0.10;;;0.10;;
15490;SDS011;7847;50.930;4.336;2023-08-31T12:52:28;0.15;;;0.15;;
15490;SDS011;7847;50.930;4.336;2023-08-31T12:54:54;0.17;;;0.17;;
15490;SDS011;7847;50.930;4.336;2023-08-31T12:57:20;0.10;;;0.10;;
15490;SDS011;7847;50.930;4.336;2023-08-31T12:59:46;0.10;;;0.10;;
15490;SDS011;7847;50.930;4.336;2023-08-31T13:02:12;0.10;;;0.10;;
15490;SDS011;7847;50.930;4.336;2023-08-31T13:04:38;0.10;;;0.10;;
15490;SDS011;7847;50.930;4.336;2023-08-31T13:07:04;0.10;;;0.10;;
15490;SDS011;7847;50.930;4.336;2023-08-31T13:09:30;0.10;;;0.10;;
15490;SDS011;7847;50.930;4.336;2023-08-31T13:11:56;0.10;;;0.10;;
15490;SDS011;7847;50.930;4.336;2023-08-31T13:14:22;0.10;;;0.10;;
15490;SDS011;7847;50.930;4.336;2023-08-31T13:16:48;0.10;;;0.10;;
15490;SDS011;7847;50.930;4.336;2023-08-31T13:19:15;0.10;;;0.10;;
15490;SDS011;7847;50.930;4.336;2023-08-31T13:21:41;0.10;;;0.10;;
15490;SDS011;7847;50.930;4.336;2023-08-31T13:24:07;0.10;;;0.10;;
15490;SDS011;7847;50.930;4.336;2023-08-31T13:26:33;0.10;;;0.10;;
15490;SDS011;7847;50.930;4.336;2023-08-31T13:28:59;0.10;;;0.10;;
15490;SDS011;7847;50.930;4.336;2023-08-31T13:31:25;0.00;;;0.00;;
15490;SDS011;7847;50.930;4.336;2023-08-31T13:33:53;0.10;;;0.10;;
15490;SDS011;7847;50.930;4.336;2023-08-31T13:36:19;0.10;;;0.10;;
15490;SDS011;7847;50.930;4.336;2023-08-31T13:38:45;0.10;;;0.10;;
15490;SDS011;7847;50.930;4.336;2023-08-31T13:41:11;0.10;;;0.10;;
15490;SDS011;7847;50.930;4.336;2023-08-31T13:43:37;0.10;;;0.10;;
15490;SDS011;7847;50.930;4.336;2023-08-31T13:46:03;0.08;;;0.08;;
15490;SDS011;7847;50.930;4.336;2023-08-31T13:48:29;0.00;;;0.00;;
15490;SDS011;7847;50.930;4.336;2023-08-31T13:50:55;0.10;;;0.10;;
15490;SDS011;7847;50.930;4.336;2023-08-31T13:53:21;0.10;;;0.10;;
15490;SDS011;7847;50.930;4.336;2023-08-31T13:55:48;0.10;;;0.10;;
15490;SDS011;7847;50.930;4.336;2023-08-31T13:58:14;0.10;;;0.10;;
15490;SDS011;7847;50.930;4.336;2023-08-31T14:00:40;0.10;;;0.10;;
15490;SDS011;7847;50.930;4.336;2023-08-31T14:03:07;0.10;;;0.10;;
15490;SDS011;7847;50.930;4.336;2023-08-31T14:05:33;0.10;;;0.10;;
15490;SDS011;7847;50.930;4.336;2023-08-31T14:07:59;0.10;;;0.10;;
15490;SDS011;7847;50.930;4.336;2023-08-31T14:10:28;0.10;;;0.10;;
15490;SDS011;7847;50.930;4.336;2023-08-31T14:12:56;0.10;;;0.10;;
15490;SDS011;7847;50.930;4.336;2023-08-31T14:15:22;0.10;;;0.10;;
15490;SDS011;7847;50.930;4.336;2023-08-31T14:17:51;0.10;;;0.10;;
15490;SDS011;7847;50.930;4.336;2023-08-31T14:20:18;0.10;;;0.10;;
15490;SDS011;7847;50.930;4.336;2023-08-31T14:22:44;0.10;;;0.10;;
15490;SDS011;7847;50.930;4.336;2023-08-31T14:25:10;0.10;;;0.10;;
15490;SDS011;7847;50.930;4.336;2023-08-31T14:27:37;0.10;;;0.10;;
15490;SDS011;7847;50.930;4.336;2023-08-31T14:30:04;0.10;;;0.10;;
15490;SDS011;7847;50.930;4.336;2023-08-31T14:32:31;0.10;;;0.10;;
15490;SDS011;7847;50.930;4.336;2023-08-31T14:34:57;0.10;;;0.10;;
15490;SDS011;7847;50.930;4.336;2023-08-31T14:37:23;0.10;;;0.10;;
15490;SDS011;7847;50.930;4.336;2023-08-31T14:39:49;0.10;;;0.10;;
15490;SDS011;7847;50.930;4.336;2023-08-31T14:42:16;0.10;;;0.10;;
15490;SDS011;7847;50.930;4.336;2023-08-31T14:44:45;0.10;;;0.10;;
15490;SDS011;7847;50.930;4.336;2023-08-31T14:47:11;0.10;;;0.10;;
15490;SDS011;7847;50.930;4.336;2023-08-31T14:49:38;0.10;;;0.10;;
15490;SDS011;7847;50.930;4.336;2023-08-31T14:52:05;0.10;;;0.10;;
15490;SDS011;7847;50.930;4.336;2023-08-31T14:54:35;0.10;;;0.10;;
15490;SDS011;7847;50.930;4.336;2023-08-31T14:57:01;0.10;;;0.10;;
15490;SDS011;7847;50.930;4.336;2023-08-31T14:59:28;0.10;;;0.10;;
15490;SDS011;7847;50.930;4.336;2023-08-31T15:01:54;0.10;;;0.10;;
15490;SDS011;7847;50.930;4.336;2023-08-31T15:04:20;0.10;;;0.10;;
15490;SDS011;7847;50.930;4.336;2023-08-31T15:06:46;0.10;;;0.10;;
15490;SDS011;7847;50.930;4.336;2023-08-31T15:09:13;0.10;;;0.10;;
15490;SDS011;7847;50.930;4.336;2023-08-31T15:11:39;0.10;;;0.10;;
15490;SDS011;7847;50.930;4.336;2023-08-31T15:14:05;0.10;;;0.10;;
15490;SDS011;7847;50.930;4.336;2023-08-31T15:16:31;0.10;;;0.10;;
15490;SDS011;7847;50.930;4.336;2023-08-31T15:19:02;0.10;;;0.10;;
15490;SDS011;7847;50.930;4.336;2023-08-31T15:21:28;0.10;;;0.10;;
15490;SDS011;7847;50.930;4.336;2023-08-31T15:23:54;0.10;;;0.10;;
15490;SDS011;7847;50.930;4.336;2023-08-31T15:26:20;0.10;;;0.10;;
15490;SDS011;7847;50.930;4.336;2023-08-31T15:28:46;0.10;;;0.10;;